sensor_id;sensor_type;location;lat;lon;timestamp;P1;durP1;ratioP1;P2;durP2;ratioP2
14681;SDS011;7429;52.498;13.480;2023-05-20T00:01:41;7.17;;;6.53;;
14681;SDS011;7429;52.498;13.480;2023-05-20T00:04:45;7.77;;;6.50;;
14681;SDS011;7429;52.498;13.480;2023-05-20T00:07:48;7.63;;;7.00;;
14681;SDS011;7429;52.498;13.480;2023-05-20T00:10:51;8.73;;;7.90;;
14681;SDS011;7429;52.498;13.480;2023-05-20T00:13:55;11.33;;;7.10;;
14681;SDS011;7429;52.498;13.480;2023-05-20T00:16:59;8.30;;;7.60;;
14681;SDS011;7429;52.498;13.480;2023-05-20T00:20:03;7.60;;;6.83;;
14681;SDS011;7429;52.498;13.480;2023-05-20T00:23:08;6.67;;;6.07;;
14681;SDS011;7429;52.498;13.480;2023-05-20T00:26:12;11.47;;;10.37;;
14681;SDS011;7429;52.498;13.480;2023-05-20T00:29:17;8.33;;;5.93;;
14681;SDS011;7429;52.498;13.480;2023-05-20T00:32:21;5.43;;;4.97;;
14681;SDS011;7429;52.498;13.480;2023-05-20T00:35:25;9.10;;;6.30;;
14681;SDS011;7429;52.498;13.480;2023-05-20T00:38:28;7.13;;;5.57;;
14681;SDS011;7429;52.498;13.480;2023-05-20T00:41:31;6.07;;;5.47;;
14681;SDS011;7429;52.498;13.480;2023-05-20T00:44:35;6.80;;;6.20;;
14681;SDS011;7429;52.498;13.480;2023-05-20T00:47:41;8.17;;;7.30;;
14681;SDS011;7429;52.498;13.480;2023-05-20T00:50:45;8.43;;;7.63;;
14681;SDS011;7429;52.498;13.480;2023-05-20T00:53:49;10.03;;;6.07;;
14681;SDS011;7429;52.498;13.480;2023-05-20T00:56:52;7.67;;;6.07;;
14681;SDS011;7429;52.498;13.480;2023-05-20T00:59:56;8.53;;;6.83;;
14681;SDS011;7429;52.498;13.480;2023-05-20T01:03:01;8.13;;;7.40;;
14681;SDS011;7429;52.498;13.480;2023-05-20T01:06:05;8.40;;;7.70;;
14681;SDS011;7429;52.498;13.480;2023-05-20T01:09:08;7.67;;;6.47;;
14681;SDS011;7429;52.498;13.480;2023-05-20T01:12:15;9.40;;;6.40;;
14681;SDS011;7429;52.498;13.480;2023-05-20T01:15:24;7.03;;;6.20;;
14681;SDS011;7429;52.498;13.480;2023-05-20T01:18:31;8.37;;;7.53;;
14681;SDS011;7429;52.498;13.480;2023-05-20T01:21:35;7.20;;;6.50;;
14681;SDS011;7429;52.498;13.480;2023-05-20T01:24:42;8.10;;;6.50;;
14681;SDS011;7429;52.498;13.480;2023-05-20T01:27:48;8.43;;;7.60;;
14681;SDS011;7429;52.498;13.480;2023-05-20T01:30:53;9.67;;;6.37;;
14681;SDS011;7429;52.498;13.480;2023-05-20T01:34:03;9.20;;;7.13;;
14681;SDS011;7429;52.498;13.480;2023-05-20T01:37:08;6.83;;;6.10;;
14681;SDS011;7429;52.498;13.480;2023-05-20T01:40:14;9.50;;;7.23;;
14681;SDS011;7429;52.498;13.480;2023-05-20T01:43:18;7.43;;;6.53;;
14681;SDS011;7429;52.498;13.480;2023-05-20T01:46:23;7.97;;;7.23;;
14681;SDS011;7429;52.498;13.480;2023-05-20T01:49:26;8.30;;;7.40;;
14681;SDS011;7429;52.498;13.480;2023-05-20T01:52:30;7.47;;;6.73;;
14681;SDS011;7429;52.498;13.480;2023-05-20T01:55:34;7.27;;;6.67;;
14681;SDS011;7429;52.498;13.480;2023-05-20T01:58:38;10.57;;;7.03;;
14681;SDS011;7429;52.498;13.480;2023-05-20T02:01:42;5.93;;;5.27;;
14681;SDS011;7429;52.498;13.480;2023-05-20T02:04:49;7.37;;;5.97;;
14681;SDS011;7429;52.498;13.480;2023-05-20T02:07:55;8.90;;;6.50;;
14681;SDS011;7429;52.498;13.480;2023-05-20T02:10:59;9.53;;;6.57;;
14681;SDS011;7429;52.498;13.480;2023-05-20T02:14:03;7.20;;;6.50;;
14681;SDS011;7429;52.498;13.480;2023-05-20T02:17:06;7.80;;;6.33;;
14681;SDS011;7429;52.498;13.480;2023-05-20T02:20:10;6.57;;;5.90;;
14681;SDS011;7429;52.498;13.480;2023-05-20T02:23:14;7.93;;;7.17;;
14681;SDS011;7429;52.498;13.480;2023-05-20T02:26:19;8.13;;;7.30;;
14681;SDS011;7429;52.498;13.480;2023-05-20T02:29:23;7.67;;;7.07;;
14681;SDS011;7429;52.498;13.480;2023-05-20T02:32:26;8.33;;;7.33;;
14681;SDS011;7429;52.498;13.480;2023-05-20T02:35:30;9.10;;;8.13;;
14681;SDS011;7429;52.498;13.480;2023-05-20T02:38:34;8.53;;;6.07;;
14681;SDS011;7429;52.498;13.480;2023-05-20T02:41:38;7.77;;;7.07;;
14681;SDS011;7429;52.498;13.480;2023-05-20T02:44:43;9.30;;;7.27;;
14681;SDS011;7429;52.498;13.480;2023-05-20T02:47:46;9.80;;;6.90;;
14681;SDS011;7429;52.498;13.480;2023-05-20T02:50:50;11.07;;;9.90;;
14681;SDS011;7429;52.498;13.480;2023-05-20T02:53:53;9.80;;;8.80;;
14681;SDS011;7429;52.498;13.480;2023-05-20T02:56:58;9.33;;;8.07;;
14681;SDS011;7429;52.498;13.480;2023-05-20T03:00:03;8.67;;;7.87;;
14681;SDS011;7429;52.498;13.480;2023-05-20T03:03:08;10.10;;;8.47;;
14681;SDS011;7429;52.498;13.480;2023-05-20T03:06:14;9.33;;;6.90;;
14681;SDS011;7429;52.498;13.480;2023-05-20T03:09:17;8.53;;;6.83;;
14681;SDS011;7429;52.498;13.480;2023-05-20T03:12:22;7.80;;;6.27;;
14681;SDS011;7429;52.498;13.480;2023-05-20T03:15:26;7.90;;;6.77;;
14681;SDS011;7429;52.498;13.480;2023-05-20T03:18:30;10.07;;;6.87;;
14681;SDS011;7429;52.498;13.480;2023-05-20T03:21:34;8.10;;;7.30;;
14681;SDS011;7429;52.498;13.480;2023-05-20T03:24:37;10.10;;;6.83;;
14681;SDS011;7429;52.498;13.480;2023-05-20T03:27:42;10.37;;;6.57;;
14681;SDS011;7429;52.498;13.480;2023-05-20T03:30:47;8.67;;;7.87;;
14681;SDS011;7429;52.498;13.480;2023-05-20T03:33:51;8.13;;;6.53;;
14681;SDS011;7429;52.498;13.480;2023-05-20T03:36:57;12.67;;;8.07;;
14681;SDS011;7429;52.498;13.480;2023-05-20T03:40:01;9.57;;;8.70;;
14681;SDS011;7429;52.498;13.480;2023-05-20T03:43:09;8.73;;;7.83;;
14681;SDS011;7429;52.498;13.480;2023-05-20T03:46:12;8.17;;;7.47;;
14681;SDS011;7429;52.498;13.480;2023-05-20T03:49:16;15.93;;;7.67;;
14681;SDS011;7429;52.498;13.480;2023-05-20T03:52:20;9.93;;;7.27;;
14681;SDS011;7429;52.498;13.480;2023-05-20T03:55:23;13.37;;;7.27;;
14681;SDS011;7429;52.498;13.480;2023-05-20T03:58:30;7.83;;;6.60;;
14681;SDS011;7429;52.498;13.480;2023-05-20T04:01:33;16.47;;;7.20;;
14681;SDS011;7429;52.498;13.480;2023-05-20T04:04:37;10.27;;;7.27;;
14681;SDS011;7429;52.498;13.480;2023-05-20T04:07:43;9.73;;;7.23;;
14681;SDS011;7429;52.498;13.480;2023-05-20T04:10:48;7.77;;;6.93;;
14681;SDS011;7429;52.498;13.480;2023-05-20T04:13:53;8.53;;;6.83;;
14681;SDS011;7429;52.498;13.480;2023-05-20T04:16:57;9.90;;;7.63;;
14681;SDS011;7429;52.498;13.480;2023-05-20T04:20:01;7.93;;;7.00;;
14681;SDS011;7429;52.498;13.480;2023-05-20T04:23:09;7.30;;;6.43;;
14681;SDS011;7429;52.498;13.480;2023-05-20T04:26:14;9.63;;;7.50;;
14681;SDS011;7429;52.498;13.480;2023-05-20T04:29:21;7.90;;;7.10;;
14681;SDS011;7429;52.498;13.480;2023-05-20T04:32:24;9.40;;;7.83;;
14681;SDS011;7429;52.498;13.480;2023-05-20T04:35:28;9.03;;;8.13;;
14681;SDS011;7429;52.498;13.480;2023-05-20T04:38:37;10.03;;;7.10;;
14681;SDS011;7429;52.498;13.480;2023-05-20T04:41:40;10.07;;;8.80;;
14681;SDS011;7429;52.498;13.480;2023-05-20T04:44:46;12.73;;;8.90;;
14681;SDS011;7429;52.498;13.480;2023-05-20T04:47:49;8.30;;;7.50;;
14681;SDS011;7429;52.498;13.480;2023-05-20T04:50:54;11.30;;;9.20;;
14681;SDS011;7429;52.498;13.480;2023-05-20T04:53:58;11.33;;;7.70;;
14681;SDS011;7429;52.498;13.480;2023-05-20T04:57:03;13.17;;;8.37;;
14681;SDS011;7429;52.498;13.480;2023-05-20T05:00:09;10.93;;;7.67;;
14681;SDS011;7429;52.498;13.480;2023-05-20T05:03:17;8.57;;;6.83;;
14681;SDS011;7429;52.498;13.480;2023-05-20T05:06:21;11.27;;;7.80;;
14681;SDS011;7429;52.498;13.480;2023-05-20T05:09:25;12.23;;;7.97;;
14681;SDS011;7429;52.498;13.480;2023-05-20T05:12:28;8.57;;;7.00;;
14681;SDS011;7429;52.498;13.480;2023-05-20T05:15:34;8.20;;;7.40;;
14681;SDS011;7429;52.498;13.480;2023-05-20T05:18:39;8.93;;;7.67;;
14681;SDS011;7429;52.498;13.480;2023-05-20T05:21:42;8.80;;;7.83;;
14681;SDS011;7429;52.498;13.480;2023-05-20T05:24:46;11.30;;;7.80;;
14681;SDS011;7429;52.498;13.480;2023-05-20T05:27:50;9.27;;;7.30;;
14681;SDS011;7429;52.498;13.480;2023-05-20T05:30:59;8.90;;;7.73;;
14681;SDS011;7429;52.498;13.480;2023-05-20T05:34:03;8.67;;;7.47;;
14681;SDS011;7429;52.498;13.480;2023-05-20T05:37:09;12.90;;;8.37;;
14681;SDS011;7429;52.498;13.480;2023-05-20T05:40:12;9.57;;;8.53;;
14681;SDS011;7429;52.498;13.480;2023-05-20T05:43:16;12.50;;;7.90;;
14681;SDS011;7429;52.498;13.480;2023-05-20T05:46:23;10.50;;;8.23;;
14681;SDS011;7429;52.498;13.480;2023-05-20T05:49:27;10.97;;;8.70;;
14681;SDS011;7429;52.498;13.480;2023-05-20T05:52:30;10.57;;;8.40;;
14681;SDS011;7429;52.498;13.480;2023-05-20T05:55:35;9.93;;;8.43;;
14681;SDS011;7429;52.498;13.480;2023-05-20T05:58:38;10.77;;;8.53;;
14681;SDS011;7429;52.498;13.480;2023-05-20T06:01:43;15.10;;;8.00;;
14681;SDS011;7429;52.498;13.480;2023-05-20T06:04:46;12.77;;;8.40;;
14681;SDS011;7429;52.498;13.480;2023-05-20T06:07:50;13.70;;;8.50;;
14681;SDS011;7429;52.498;13.480;2023-05-20T06:10:54;8.83;;;7.73;;
14681;SDS011;7429;52.498;13.480;2023-05-20T06:14:02;9.73;;;8.73;;
14681;SDS011;7429;52.498;13.480;2023-05-20T06:17:07;13.70;;;8.43;;
14681;SDS011;7429;52.498;13.480;2023-05-20T06:20:11;14.73;;;8.43;;
14681;SDS011;7429;52.498;13.480;2023-05-20T06:23:14;9.70;;;8.43;;
14681;SDS011;7429;52.498;13.480;2023-05-20T06:26:29;13.23;;;8.17;;
14681;SDS011;7429;52.498;13.480;2023-05-20T06:29:32;9.47;;;8.50;;
14681;SDS011;7429;52.498;13.480;2023-05-20T06:32:40;13.43;;;8.43;;
14681;SDS011;7429;52.498;13.480;2023-05-20T06:35:44;10.97;;;8.43;;
14681;SDS011;7429;52.498;13.480;2023-05-20T06:38:48;9.63;;;8.53;;
14681;SDS011;7429;52.498;13.480;2023-05-20T06:41:51;14.03;;;9.30;;
14681;SDS011;7429;52.498;13.480;2023-05-20T06:45:03;12.60;;;8.80;;
14681;SDS011;7429;52.498;13.480;2023-05-20T06:48:17;15.13;;;8.53;;
14681;SDS011;7429;52.498;13.480;2023-05-20T06:51:23;10.53;;;8.53;;
14681;SDS011;7429;52.498;13.480;2023-05-20T06:54:28;11.23;;;9.40;;
14681;SDS011;7429;52.498;13.480;2023-05-20T06:57:34;8.20;;;7.37;;
14681;SDS011;7429;52.498;13.480;2023-05-20T07:00:38;10.77;;;7.70;;
14681;SDS011;7429;52.498;13.480;2023-05-20T07:03:43;11.20;;;9.00;;
14681;SDS011;7429;52.498;13.480;2023-05-20T07:06:47;13.57;;;9.67;;
14681;SDS011;7429;52.498;13.480;2023-05-20T07:09:51;12.43;;;10.43;;
14681;SDS011;7429;52.498;13.480;2023-05-20T07:12:56;10.27;;;9.00;;
14681;SDS011;7429;52.498;13.480;2023-05-20T07:15:59;10.50;;;8.57;;
14681;SDS011;7429;52.498;13.480;2023-05-20T07:19:04;11.90;;;9.17;;
14681;SDS011;7429;52.498;13.480;2023-05-20T07:22:08;10.60;;;8.53;;
14681;SDS011;7429;52.498;13.480;2023-05-20T07:25:40;11.63;;;10.37;;
14681;SDS011;7429;52.498;13.480;2023-05-20T07:28:43;9.20;;;7.93;;
14681;SDS011;7429;52.498;13.480;2023-05-20T07:31:48;10.13;;;7.87;;
14681;SDS011;7429;52.498;13.480;2023-05-20T07:34:53;13.87;;;11.17;;
14681;SDS011;7429;52.498;13.480;2023-05-20T07:37:56;13.67;;;11.17;;
14681;SDS011;7429;52.498;13.480;2023-05-20T07:41:00;12.10;;;10.97;;
14681;SDS011;7429;52.498;13.480;2023-05-20T07:44:05;10.63;;;9.07;;
14681;SDS011;7429;52.498;13.480;2023-05-20T07:47:12;12.97;;;9.40;;
14681;SDS011;7429;52.498;13.480;2023-05-20T07:50:19;8.50;;;7.73;;
14681;SDS011;7429;52.498;13.480;2023-05-20T07:53:22;9.63;;;8.63;;
14681;SDS011;7429;52.498;13.480;2023-05-20T07:56:26;12.90;;;7.60;;
14681;SDS011;7429;52.498;13.480;2023-05-20T07:59:30;12.30;;;7.83;;
14681;SDS011;7429;52.498;13.480;2023-05-20T08:02:34;8.23;;;6.63;;
14681;SDS011;7429;52.498;13.480;2023-05-20T08:05:39;9.40;;;7.60;;
14681;SDS011;7429;52.498;13.480;2023-05-20T08:08:43;11.10;;;7.97;;
14681;SDS011;7429;52.498;13.480;2023-05-20T08:11:53;11.57;;;9.23;;
14681;SDS011;7429;52.498;13.480;2023-05-20T08:14:56;11.73;;;9.53;;
14681;SDS011;7429;52.498;13.480;2023-05-20T08:17:59;9.87;;;7.53;;
14681;SDS011;7429;52.498;13.480;2023-05-20T08:21:05;10.60;;;9.60;;
14681;SDS011;7429;52.498;13.480;2023-05-20T08:24:11;12.30;;;10.97;;
14681;SDS011;7429;52.498;13.480;2023-05-20T08:27:15;9.97;;;7.30;;
14681;SDS011;7429;52.498;13.480;2023-05-20T08:30:18;11.17;;;9.43;;
14681;SDS011;7429;52.498;13.480;2023-05-20T08:33:22;10.03;;;9.00;;
14681;SDS011;7429;52.498;13.480;2023-05-20T08:36:27;11.13;;;8.67;;
14681;SDS011;7429;52.498;13.480;2023-05-20T08:39:31;9.20;;;8.27;;
14681;SDS011;7429;52.498;13.480;2023-05-20T08:42:34;8.47;;;7.53;;
14681;SDS011;7429;52.498;13.480;2023-05-20T08:45:38;9.93;;;8.97;;
14681;SDS011;7429;52.498;13.480;2023-05-20T08:48:46;10.80;;;9.70;;
14681;SDS011;7429;52.498;13.480;2023-05-20T08:51:51;12.30;;;10.27;;
14681;SDS011;7429;52.498;13.480;2023-05-20T08:54:55;10.73;;;9.73;;
14681;SDS011;7429;52.498;13.480;2023-05-20T08:58:01;9.23;;;8.40;;
14681;SDS011;7429;52.498;13.480;2023-05-20T09:01:07;9.50;;;8.50;;
14681;SDS011;7429;52.498;13.480;2023-05-20T09:04:10;11.00;;;9.53;;
14681;SDS011;7429;52.498;13.480;2023-05-20T09:07:24;10.50;;;9.50;;
14681;SDS011;7429;52.498;13.480;2023-05-20T09:10:29;10.13;;;9.17;;
14681;SDS011;7429;52.498;13.480;2023-05-20T09:13:33;10.33;;;8.80;;
14681;SDS011;7429;52.498;13.480;2023-05-20T09:16:38;11.70;;;10.77;;
14681;SDS011;7429;52.498;13.480;2023-05-20T09:19:42;15.40;;;14.17;;
14681;SDS011;7429;52.498;13.480;2023-05-20T09:22:49;19.83;;;18.23;;
14681;SDS011;7429;52.498;13.480;2023-05-20T09:25:53;15.73;;;12.47;;
14681;SDS011;7429;52.498;13.480;2023-05-20T09:29:02;11.43;;;10.33;;
14681;SDS011;7429;52.498;13.480;2023-05-20T09:32:06;16.17;;;14.97;;
14681;SDS011;7429;52.498;13.480;2023-05-20T09:35:11;16.80;;;15.27;;
14681;SDS011;7429;52.498;13.480;2023-05-20T09:38:17;21.57;;;19.77;;
14681;SDS011;7429;52.498;13.480;2023-05-20T09:41:21;16.80;;;14.87;;
14681;SDS011;7429;52.498;13.480;2023-05-20T09:44:26;12.90;;;11.60;;
14681;SDS011;7429;52.498;13.480;2023-05-20T09:47:30;13.10;;;11.80;;
14681;SDS011;7429;52.498;13.480;2023-05-20T09:50:34;14.30;;;12.53;;
14681;SDS011;7429;52.498;13.480;2023-05-20T09:53:43;14.87;;;13.30;;
14681;SDS011;7429;52.498;13.480;2023-05-20T09:56:46;16.90;;;15.20;;
14681;SDS011;7429;52.498;13.480;2023-05-20T09:59:49;16.83;;;15.17;;
14681;SDS011;7429;52.498;13.480;2023-05-20T10:02:54;19.30;;;17.33;;
14681;SDS011;7429;52.498;13.480;2023-05-20T10:06:02;14.37;;;11.93;;
14681;SDS011;7429;52.498;13.480;2023-05-20T10:09:27;16.17;;;12.57;;
14681;SDS011;7429;52.498;13.480;2023-05-20T10:12:44;14.67;;;11.63;;
14681;SDS011;7429;52.498;13.480;2023-05-20T10:15:57;12.47;;;11.13;;
14681;SDS011;7429;52.498;13.480;2023-05-20T10:19:10;14.90;;;11.97;;
14681;SDS011;7429;52.498;13.480;2023-05-20T10:22:25;12.67;;;10.60;;
14681;SDS011;7429;52.498;13.480;2023-05-20T10:25:33;11.48;;;10.20;;
14681;SDS011;7429;52.498;13.480;2023-05-20T10:28:39;15.85;;;10.93;;
14681;SDS011;7429;52.498;13.480;2023-05-20T10:31:43;13.57;;;12.25;;
14681;SDS011;7429;52.498;13.480;2023-05-20T10:34:47;11.88;;;10.68;;
14681;SDS011;7429;52.498;13.480;2023-05-20T10:37:52;13.93;;;12.03;;
14681;SDS011;7429;52.498;13.480;2023-05-20T10:41:07;12.77;;;11.23;;
14681;SDS011;7429;52.498;13.480;2023-05-20T10:44:11;12.18;;;10.85;;
14681;SDS011;7429;52.498;13.480;2023-05-20T10:47:16;12.80;;;11.38;;
14681;SDS011;7429;52.498;13.480;2023-05-20T10:50:26;15.13;;;10.90;;
14681;SDS011;7429;52.498;13.480;2023-05-20T10:53:37;16.02;;;12.75;;
14681;SDS011;7429;52.498;13.480;2023-05-20T10:56:50;12.50;;;11.02;;
14681;SDS011;7429;52.498;13.480;2023-05-20T11:00:08;14.55;;;12.35;;
14681;SDS011;7429;52.498;13.480;2023-05-20T11:03:12;14.15;;;10.65;;
14681;SDS011;7429;52.498;13.480;2023-05-20T11:06:17;16.33;;;10.82;;
14681;SDS011;7429;52.498;13.480;2023-05-20T11:09:21;11.48;;;10.27;;
14681;SDS011;7429;52.498;13.480;2023-05-20T11:12:27;13.75;;;11.52;;
14681;SDS011;7429;52.498;13.480;2023-05-20T11:15:30;11.80;;;10.43;;
14681;SDS011;7429;52.498;13.480;2023-05-20T11:18:34;12.43;;;10.88;;
14681;SDS011;7429;52.498;13.480;2023-05-20T11:21:41;12.60;;;11.05;;
14681;SDS011;7429;52.498;13.480;2023-05-20T11:24:45;14.93;;;10.23;;
14681;SDS011;7429;52.498;13.480;2023-05-20T11:27:50;13.45;;;11.60;;
14681;SDS011;7429;52.498;13.480;2023-05-20T11:30:54;10.50;;;9.30;;
14681;SDS011;7429;52.498;13.480;2023-05-20T11:33:59;12.82;;;9.40;;
14681;SDS011;7429;52.498;13.480;2023-05-20T11:37:05;11.63;;;10.32;;
14681;SDS011;7429;52.498;13.480;2023-05-20T11:40:11;11.23;;;9.88;;
14681;SDS011;7429;52.498;13.480;2023-05-20T11:43:19;16.30;;;10.48;;
14681;SDS011;7429;52.498;13.480;2023-05-20T11:46:24;11.73;;;10.52;;
14681;SDS011;7429;52.498;13.480;2023-05-20T11:49:29;16.48;;;10.98;;
14681;SDS011;7429;52.498;13.480;2023-05-20T11:52:44;13.18;;;10.50;;
14681;SDS011;7429;52.498;13.480;2023-05-20T11:55:47;12.40;;;11.02;;
14681;SDS011;7429;52.498;13.480;2023-05-20T11:58:54;13.15;;;10.98;;
14681;SDS011;7429;52.498;13.480;2023-05-20T12:01:59;16.27;;;11.13;;
14681;SDS011;7429;52.498;13.480;2023-05-20T12:05:02;13.77;;;12.43;;
14681;SDS011;7429;52.498;13.480;2023-05-20T12:08:06;11.55;;;10.35;;
14681;SDS011;7429;52.498;13.480;2023-05-20T12:11:10;15.80;;;13.98;;
14681;SDS011;7429;52.498;13.480;2023-05-20T12:14:15;13.57;;;11.48;;
14681;SDS011;7429;52.498;13.480;2023-05-20T12:17:18;12.35;;;9.85;;
14681;SDS011;7429;52.498;13.480;2023-05-20T12:20:22;16.17;;;11.65;;
14681;SDS011;7429;52.498;13.480;2023-05-20T12:23:27;12.77;;;9.82;;
14681;SDS011;7429;52.498;13.480;2023-05-20T12:26:34;11.95;;;9.73;;
14681;SDS011;7429;52.498;13.480;2023-05-20T12:29:39;12.98;;;10.43;;
14681;SDS011;7429;52.498;13.480;2023-05-20T12:32:42;15.60;;;10.15;;
14681;SDS011;7429;52.498;13.480;2023-05-20T12:35:46;12.00;;;9.63;;
14681;SDS011;7429;52.498;13.480;2023-05-20T12:38:50;11.88;;;9.30;;
14681;SDS011;7429;52.498;13.480;2023-05-20T12:41:53;13.88;;;10.07;;
14681;SDS011;7429;52.498;13.480;2023-05-20T12:44:58;11.07;;;9.50;;
14681;SDS011;7429;52.498;13.480;2023-05-20T12:48:01;10.30;;;8.55;;
14681;SDS011;7429;52.498;13.480;2023-05-20T12:51:06;10.50;;;9.23;;
14681;SDS011;7429;52.498;13.480;2023-05-20T12:54:11;13.07;;;10.00;;
14681;SDS011;7429;52.498;13.480;2023-05-20T12:57:15;11.30;;;10.02;;
14681;SDS011;7429;52.498;13.480;2023-05-20T13:00:23;13.25;;;10.85;;
14681;SDS011;7429;52.498;13.480;2023-05-20T13:03:26;11.02;;;9.18;;
14681;SDS011;7429;52.498;13.480;2023-05-20T13:06:30;9.85;;;8.73;;
14681;SDS011;7429;52.498;13.480;2023-05-20T13:09:33;12.38;;;9.73;;
14681;SDS011;7429;52.498;13.480;2023-05-20T13:12:37;10.55;;;9.45;;
14681;SDS011;7429;52.498;13.480;2023-05-20T13:15:42;10.93;;;8.23;;
14681;SDS011;7429;52.498;13.480;2023-05-20T13:18:45;11.23;;;8.55;;
14681;SDS011;7429;52.498;13.480;2023-05-20T13:21:49;10.95;;;9.85;;
14681;SDS011;7429;52.498;13.480;2023-05-20T13:24:54;9.70;;;8.73;;
14681;SDS011;7429;52.498;13.480;2023-05-20T13:27:58;11.98;;;8.95;;
14681;SDS011;7429;52.498;13.480;2023-05-20T13:31:03;10.70;;;9.05;;
14681;SDS011;7429;52.498;13.480;2023-05-20T13:34:07;13.23;;;9.10;;
14681;SDS011;7429;52.498;13.480;2023-05-20T13:37:11;13.07;;;8.80;;
14681;SDS011;7429;52.498;13.480;2023-05-20T13:40:15;11.43;;;9.15;;
14681;SDS011;7429;52.498;13.480;2023-05-20T13:43:18;8.75;;;7.85;;
14681;SDS011;7429;52.498;13.480;2023-05-20T13:46:23;11.63;;;8.25;;
14681;SDS011;7429;52.498;13.480;2023-05-20T13:49:29;11.82;;;8.75;;
14681;SDS011;7429;52.498;13.480;2023-05-20T13:52:32;10.60;;;8.70;;
14681;SDS011;7429;52.498;13.480;2023-05-20T13:55:35;11.32;;;8.25;;
14681;SDS011;7429;52.498;13.480;2023-05-20T13:58:39;10.70;;;9.43;;
14681;SDS011;7429;52.498;13.480;2023-05-20T14:01:44;10.27;;;8.73;;
14681;SDS011;7429;52.498;13.480;2023-05-20T14:04:47;9.25;;;8.32;;
14681;SDS011;7429;52.498;13.480;2023-05-20T14:07:51;10.93;;;8.63;;
14681;SDS011;7429;52.498;13.480;2023-05-20T14:10:54;9.50;;;8.00;;
14681;SDS011;7429;52.498;13.480;2023-05-20T14:13:57;10.27;;;7.32;;
14681;SDS011;7429;52.498;13.480;2023-05-20T14:17:02;9.93;;;8.52;;
14681;SDS011;7429;52.498;13.480;2023-05-20T14:20:07;8.65;;;7.82;;
14681;SDS011;7429;52.498;13.480;2023-05-20T14:23:12;9.18;;;8.27;;
14681;SDS011;7429;52.498;13.480;2023-05-20T14:26:15;10.18;;;7.15;;
14681;SDS011;7429;52.498;13.480;2023-05-20T14:29:19;9.02;;;8.10;;
14681;SDS011;7429;52.498;13.480;2023-05-20T14:32:23;8.80;;;6.72;;
14681;SDS011;7429;52.498;13.480;2023-05-20T14:35:27;11.25;;;7.93;;
14681;SDS011;7429;52.498;13.480;2023-05-20T14:38:34;9.25;;;7.13;;
14681;SDS011;7429;52.498;13.480;2023-05-20T14:41:37;8.60;;;7.63;;
14681;SDS011;7429;52.498;13.480;2023-05-20T14:44:40;9.88;;;7.03;;
14681;SDS011;7429;52.498;13.480;2023-05-20T14:47:45;10.63;;;7.15;;
14681;SDS011;7429;52.498;13.480;2023-05-20T14:50:49;8.90;;;7.72;;
14681;SDS011;7429;52.498;13.480;2023-05-20T14:53:52;8.43;;;7.53;;
14681;SDS011;7429;52.498;13.480;2023-05-20T14:57:01;8.63;;;7.80;;
14681;SDS011;7429;52.498;13.480;2023-05-20T15:00:07;9.82;;;7.35;;
14681;SDS011;7429;52.498;13.480;2023-05-20T15:03:17;8.77;;;7.72;;
14681;SDS011;7429;52.498;13.480;2023-05-20T15:06:21;11.02;;;8.02;;
14681;SDS011;7429;52.498;13.480;2023-05-20T15:09:24;8.82;;;7.47;;
14681;SDS011;7429;52.498;13.480;2023-05-20T15:12:28;9.18;;;7.22;;
14681;SDS011;7429;52.498;13.480;2023-05-20T15:15:31;12.05;;;7.30;;
14681;SDS011;7429;52.498;13.480;2023-05-20T15:18:36;8.25;;;7.45;;
14681;SDS011;7429;52.498;13.480;2023-05-20T15:21:40;8.32;;;6.95;;
14681;SDS011;7429;52.498;13.480;2023-05-20T15:24:43;7.03;;;6.32;;
14681;SDS011;7429;52.498;13.480;2023-05-20T15:27:47;8.95;;;7.30;;
14681;SDS011;7429;52.498;13.480;2023-05-20T15:30:54;8.30;;;7.50;;
14681;SDS011;7429;52.498;13.480;2023-05-20T15:33:58;9.02;;;7.50;;
14681;SDS011;7429;52.498;13.480;2023-05-20T15:37:02;10.90;;;6.82;;
14681;SDS011;7429;52.498;13.480;2023-05-20T15:40:07;11.68;;;9.95;;
14681;SDS011;7429;52.498;13.480;2023-05-20T15:43:12;18.00;;;14.70;;
14681;SDS011;7429;52.498;13.480;2023-05-20T15:46:15;10.25;;;8.20;;
14681;SDS011;7429;52.498;13.480;2023-05-20T15:49:20;8.43;;;6.70;;
14681;SDS011;7429;52.498;13.480;2023-05-20T15:52:24;8.38;;;7.25;;
14681;SDS011;7429;52.498;13.480;2023-05-20T15:55:28;8.45;;;7.25;;
14681;SDS011;7429;52.498;13.480;2023-05-20T15:58:31;9.00;;;7.68;;
14681;SDS011;7429;52.498;13.480;2023-05-20T16:01:34;9.65;;;8.20;;
14681;SDS011;7429;52.498;13.480;2023-05-20T16:04:42;10.88;;;7.90;;
14681;SDS011;7429;52.498;13.480;2023-05-20T16:07:45;15.45;;;12.88;;
14681;SDS011;7429;52.498;13.480;2023-05-20T16:10:48;8.25;;;7.45;;
14681;SDS011;7429;52.498;13.480;2023-05-20T16:13:52;8.45;;;7.63;;
14681;SDS011;7429;52.498;13.480;2023-05-20T16:16:55;11.07;;;9.98;;
14681;SDS011;7429;52.498;13.480;2023-05-20T16:20:00;8.48;;;7.22;;
14681;SDS011;7429;52.498;13.480;2023-05-20T16:23:07;11.25;;;7.90;;
14681;SDS011;7429;52.498;13.480;2023-05-20T16:26:11;9.10;;;8.30;;
14681;SDS011;7429;52.498;13.480;2023-05-20T16:29:14;9.60;;;7.88;;
14681;SDS011;7429;52.498;13.480;2023-05-20T16:32:18;8.02;;;7.22;;
14681;SDS011;7429;52.498;13.480;2023-05-20T16:35:23;9.25;;;7.25;;
14681;SDS011;7429;52.498;13.480;2023-05-20T16:38:27;8.00;;;7.22;;
14681;SDS011;7429;52.498;13.480;2023-05-20T16:41:31;12.10;;;7.35;;
14681;SDS011;7429;52.498;13.480;2023-05-20T16:44:36;8.75;;;7.75;;
14681;SDS011;7429;52.498;13.480;2023-05-20T16:47:40;8.48;;;6.70;;
14681;SDS011;7429;52.498;13.480;2023-05-20T16:50:47;8.30;;;7.30;;
14681;SDS011;7429;52.498;13.480;2023-05-20T16:53:52;7.72;;;7.03;;
14681;SDS011;7429;52.498;13.480;2023-05-20T16:56:56;9.25;;;7.43;;
14681;SDS011;7429;52.498;13.480;2023-05-20T16:59:59;8.88;;;7.70;;
14681;SDS011;7429;52.498;13.480;2023-05-20T17:03:07;10.15;;;8.00;;
14681;SDS011;7429;52.498;13.480;2023-05-20T17:06:12;10.77;;;7.43;;
14681;SDS011;7429;52.498;13.480;2023-05-20T17:09:16;9.52;;;8.13;;
14681;SDS011;7429;52.498;13.480;2023-05-20T17:12:19;7.82;;;7.03;;
14681;SDS011;7429;52.498;13.480;2023-05-20T17:15:23;9.93;;;7.40;;
14681;SDS011;7429;52.498;13.480;2023-05-20T17:18:26;13.13;;;8.25;;
14681;SDS011;7429;52.498;13.480;2023-05-20T17:21:31;10.93;;;8.13;;
14681;SDS011;7429;52.498;13.480;2023-05-20T17:24:35;9.55;;;8.52;;
14681;SDS011;7429;52.498;13.480;2023-05-20T17:27:38;10.70;;;8.00;;
14681;SDS011;7429;52.498;13.480;2023-05-20T17:30:41;10.75;;;9.15;;
14681;SDS011;7429;52.498;13.480;2023-05-20T17:33:44;8.98;;;8.07;;
14681;SDS011;7429;52.498;13.480;2023-05-20T17:36:50;10.68;;;7.85;;
14681;SDS011;7429;52.498;13.480;2023-05-20T17:39:53;8.90;;;8.00;;
14681;SDS011;7429;52.498;13.480;2023-05-20T17:42:56;9.02;;;8.02;;
14681;SDS011;7429;52.498;13.480;2023-05-20T17:45:59;9.13;;;8.00;;
14681;SDS011;7429;52.498;13.480;2023-05-20T17:49:05;10.82;;;8.90;;
14681;SDS011;7429;52.498;13.480;2023-05-20T17:52:09;9.30;;;8.30;;
14681;SDS011;7429;52.498;13.480;2023-05-20T17:55:13;10.77;;;9.50;;
14681;SDS011;7429;52.498;13.480;2023-05-20T17:58:18;8.75;;;7.85;;
14681;SDS011;7429;52.498;13.480;2023-05-20T18:01:25;10.68;;;7.60;;
14681;SDS011;7429;52.498;13.480;2023-05-20T18:04:28;12.25;;;8.80;;
14681;SDS011;7429;52.498;13.480;2023-05-20T18:07:33;8.13;;;7.32;;
14681;SDS011;7429;52.498;13.480;2023-05-20T18:10:38;9.00;;;8.20;;
14681;SDS011;7429;52.498;13.480;2023-05-20T18:13:42;9.10;;;7.53;;
14681;SDS011;7429;52.498;13.480;2023-05-20T18:16:45;9.30;;;8.40;;
14681;SDS011;7429;52.498;13.480;2023-05-20T18:19:52;11.00;;;8.30;;
14681;SDS011;7429;52.498;13.480;2023-05-20T18:22:57;11.40;;;8.20;;